sensor_id;sensor_type;location;lat;lon;timestamp;temperature;humidity
40828;DHT22;26549;50.918;5.338;2022-07-24T00:01:49;21.40;98.90
40828;DHT22;26549;50.918;5.338;2022-07-24T00:04:14;21.20;99.10
40828;DHT22;26549;50.918;5.338;2022-07-24T00:06:42;21.10;99.40
40828;DHT22;26549;50.918;5.338;2022-07-24T00:09:08;21.10;99.30
40828;DHT22;26549;50.918;5.338;2022-07-24T00:11:34;21.00;99.50
40828;DHT22;26549;50.918;5.338;2022-07-24T00:14:00;21.10;99.30
40828;DHT22;26549;50.918;5.338;2022-07-24T00:16:25;21.10;99.30
40828;DHT22;26549;50.918;5.338;2022-07-24T00:18:51;21.20;99.30
40828;DHT22;26549;50.918;5.338;2022-07-24T00:21:17;21.20;99.40
40828;DHT22;26549;50.918;5.338;2022-07-24T00:23:43;21.30;99.30
40828;DHT22;26549;50.918;5.338;2022-07-24T00:26:10;21.30;99.40
40828;DHT22;26549;50.918;5.338;2022-07-24T00:28:36;21.30;99.30
40828;DHT22;26549;50.918;5.338;2022-07-24T00:31:02;21.30;99.30
40828;DHT22;26549;50.918;5.338;2022-07-24T00:33:27;21.30;99.30
40828;DHT22;26549;50.918;5.338;2022-07-24T00:35:53;21.20;99.30
40828;DHT22;26549;50.918;5.338;2022-07-24T00:38:21;21.10;99.80
40828;DHT22;26549;50.918;5.338;2022-07-24T00:40:47;21.10;99.70
40828;DHT22;26549;50.918;5.338;2022-07-24T00:43:12;21.10;99.80
40828;DHT22;26549;50.918;5.338;2022-07-24T00:45:39;21.20;99.70
40828;DHT22;26549;50.918;5.338;2022-07-24T00:48:05;21.20;99.50
40828;DHT22;26549;50.918;5.338;2022-07-24T00:50:31;21.20;99.00
40828;DHT22;26549;50.918;5.338;2022-07-24T00:52:58;21.00;99.30
40828;DHT22;26549;50.918;5.338;2022-07-24T00:55:24;21.00;99.70
40828;DHT22;26549;50.918;5.338;2022-07-24T00:57:51;20.80;99.90
40828;DHT22;26549;50.918;5.338;2022-07-24T01:00:18;20.80;99.90
40828;DHT22;26549;50.918;5.338;2022-07-24T01:02:48;20.70;99.90
40828;DHT22;26549;50.918;5.338;2022-07-24T01:05:14;20.80;99.90
40828;DHT22;26549;50.918;5.338;2022-07-24T01:07:39;20.70;99.90
40828;DHT22;26549;50.918;5.338;2022-07-24T01:10:06;20.70;99.90
40828;DHT22;26549;50.918;5.338;2022-07-24T01:12:33;20.80;99.90
40828;DHT22;26549;50.918;5.338;2022-07-24T01:15:00;20.80;99.90
40828;DHT22;26549;50.918;5.338;2022-07-24T01:17:32;20.70;99.90
40828;DHT22;26549;50.918;5.338;2022-07-24T01:19:59;20.30;99.90
40828;DHT22;26549;50.918;5.338;2022-07-24T01:22:26;20.20;99.90
40828;DHT22;26549;50.918;5.338;2022-07-24T01:24:52;20.30;99.90
40828;DHT22;26549;50.918;5.338;2022-07-24T01:27:21;20.20;99.90
40828;DHT22;26549;50.918;5.338;2022-07-24T01:29:46;20.40;99.90
40828;DHT22;26549;50.918;5.338;2022-07-24T01:32:12;20.40;99.90
40828;DHT22;26549;50.918;5.338;2022-07-24T01:34:38;20.50;99.90
40828;DHT22;26549;50.918;5.338;2022-07-24T01:37:04;20.60;99.90
40828;DHT22;26549;50.918;5.338;2022-07-24T01:39:29;20.60;99.90
40828;DHT22;26549;50.918;5.338;2022-07-24T01:41:55;20.60;99.90
40828;DHT22;26549;50.918;5.338;2022-07-24T01:44:21;20.50;99.90
40828;DHT22;26549;50.918;5.338;2022-07-24T01:46:47;20.50;99.90
40828;DHT22;26549;50.918;5.338;2022-07-24T01:49:13;20.50;99.90
40828;DHT22;26549;50.918;5.338;2022-07-24T01:51:39;20.40;99.90
40828;DHT22;26549;50.918;5.338;2022-07-24T01:54:05;20.40;99.90
40828;DHT22;26549;50.918;5.338;2022-07-24T01:56:31;20.50;99.90
40828;DHT22;26549;50.918;5.338;2022-07-24T01:58:57;20.50;99.90
40828;DHT22;26549;50.918;5.338;2022-07-24T02:01:24;20.50;99.90
40828;DHT22;26549;50.918;5.338;2022-07-24T02:03:50;20.50;99.90
40828;DHT22;26549;50.918;5.338;2022-07-24T02:06:16;20.40;99.90
40828;DHT22;26549;50.918;5.338;2022-07-24T02:08:42;20.40;99.90
40828;DHT22;26549;50.918;5.338;2022-07-24T02:11:07;20.40;99.90
40828;DHT22;26549;50.918;5.338;2022-07-24T02:13:34;20.30;99.90
40828;DHT22;26549;50.918;5.338;2022-07-24T02:16:00;20.40;99.90
40828;DHT22;26549;50.918;5.338;2022-07-24T02:18:25;20.40;99.90
40828;DHT22;26549;50.918;5.338;2022-07-24T02:20:51;20.40;99.90
40828;DHT22;26549;50.918;5.338;2022-07-24T02:23:17;20.30;99.90
40828;DHT22;26549;50.918;5.338;2022-07-24T02:25:45;20.30;99.90
40828;DHT22;26549;50.918;5.338;2022-07-24T02:28:11;20.20;99.90
40828;DHT22;26549;50.918;5.338;2022-07-24T02:30:37;20.10;99.90
40828;DHT22;26549;50.918;5.338;2022-07-24T02:33:03;20.10;99.90
40828;DHT22;26549;50.918;5.338;2022-07-24T02:35:28;20.10;99.90
40828;DHT22;26549;50.918;5.338;2022-07-24T02:37:54;20.00;99.90
40828;DHT22;26549;50.918;5.338;2022-07-24T02:40:20;20.00;99.90
40828;DHT22;26549;50.918;5.338;2022-07-24T02:42:46;20.00;99.90
40828;DHT22;26549;50.918;5.338;2022-07-24T02:45:11;20.10;99.90
40828;DHT22;26549;50.918;5.338;2022-07-24T02:47:47;20.00;99.90
40828;DHT22;26549;50.918;5.338;2022-07-24T02:50:14;20.00;99.90
40828;DHT22;26549;50.918;5.338;2022-07-24T02:52:39;20.00;99.90
40828;DHT22;26549;50.918;5.338;2022-07-24T02:55:05;19.90;99.90
40828;DHT22;26549;50.918;5.338;2022-07-24T02:57:33;19.90;99.90
40828;DHT22;26549;50.918;5.338;2022-07-24T02:59:59;19.90;99.90
40828;DHT22;26549;50.918;5.338;2022-07-24T03:02:25;19.90;99.90
40828;DHT22;26549;50.918;5.338;2022-07-24T03:04:51;19.90;99.90
40828;DHT22;26549;50.918;5.338;2022-07-24T03:07:20;19.90;99.90
40828;DHT22;26549;50.918;5.338;2022-07-24T03:09:45;19.90;99.90
40828;DHT22;26549;50.918;5.338;2022-07-24T03:12:11;19.80;99.90
40828;DHT22;26549;50.918;5.338;2022-07-24T03:14:37;19.70;99.90
40828;DHT22;26549;50.918;5.338;2022-07-24T03:17:04;19.70;99.90
40828;DHT22;26549;50.918;5.338;2022-07-24T03:19:29;19.70;99.90
40828;DHT22;26549;50.918;5.338;2022-07-24T03:21:55;19.80;99.90
40828;DHT22;26549;50.918;5.338;2022-07-24T03:24:21;19.80;99.90
40828;DHT22;26549;50.918;5.338;2022-07-24T03:26:49;19.70;99.90
40828;DHT22;26549;50.918;5.338;2022-07-24T03:29:15;19.60;99.90
40828;DHT22;26549;50.918;5.338;2022-07-24T03:31:40;19.60;99.90
40828;DHT22;26549;50.918;5.338;2022-07-24T03:34:09;19.60;99.90
40828;DHT22;26549;50.918;5.338;2022-07-24T03:36:35;19.70;99.90
40828;DHT22;26549;50.918;5.338;2022-07-24T03:39:01;19.60;99.90
40828;DHT22;26549;50.918;5.338;2022-07-24T03:41:26;19.60;99.90
40828;DHT22;26549;50.918;5.338;2022-07-24T03:43:52;19.70;99.90
40828;DHT22;26549;50.918;5.338;2022-07-24T03:46:18;19.70;99.90
40828;DHT22;26549;50.918;5.338;2022-07-24T03:48:43;19.70;99.90
40828;DHT22;26549;50.918;5.338;2022-07-24T03:51:09;19.70;99.90
40828;DHT22;26549;50.918;5.338;2022-07-24T03:53:35;19.60;99.90
40828;DHT22;26549;50.918;5.338;2022-07-24T03:56:07;19.60;99.90
40828;DHT22;26549;50.918;5.338;2022-07-24T03:58:33;19.60;99.90
40828;DHT22;26549;50.918;5.338;2022-07-24T04:00:59;19.60;99.90
40828;DHT22;26549;50.918;5.338;2022-07-24T04:03:25;19.60;99.90
40828;DHT22;26549;50.918;5.338;2022-07-24T04:05:51;19.40;99.90
40828;DHT22;26549;50.918;5.338;2022-07-24T04:08:19;19.30;99.90
40828;DHT22;26549;50.918;5.338;2022-07-24T04:10:44;19.30;99.90
40828;DHT22;26549;50.918;5.338;2022-07-24T04:13:11;19.30;99.90
40828;DHT22;26549;50.918;5.338;2022-07-24T04:15:37;19.40;99.90
40828;DHT22;26549;50.918;5.338;2022-07-24T04:18:03;19.30;99.90
40828;DHT22;26549;50.918;5.338;2022-07-24T04:20:29;19.30;99.90
40828;DHT22;26549;50.918;5.338;2022-07-24T04:22:55;19.30;99.90
40828;DHT22;26549;50.918;5.338;2022-07-24T04:25:20;19.40;99.90
40828;DHT22;26549;50.918;5.338;2022-07-24T04:27:46;19.30;99.90
40828;DHT22;26549;50.918;5.338;2022-07-24T04:30:15;19.40;99.90
40828;DHT22;26549;50.918;5.338;2022-07-24T04:32:41;19.40;99.90
40828;DHT22;26549;50.918;5.338;2022-07-24T04:35:07;19.30;99.90
40828;DHT22;26549;50.918;5.338;2022-07-24T04:37:33;19.40;99.90
40828;DHT22;26549;50.918;5.338;2022-07-24T04:40:01;19.40;99.90
40828;DHT22;26549;50.918;5.338;2022-07-24T04:42:27;19.50;99.90
40828;DHT22;26549;50.918;5.338;2022-07-24T04:44:52;19.50;99.90
40828;DHT22;26549;50.918;5.338;2022-07-24T04:47:18;19.50;99.90
40828;DHT22;26549;50.918;5.338;2022-07-24T04:49:44;19.70;99.90
40828;DHT22;26549;50.918;5.338;2022-07-24T04:52:09;19.70;99.90
40828;DHT22;26549;50.918;5.338;2022-07-24T04:54:35;19.70;99.90
40828;DHT22;26549;50.918;5.338;2022-07-24T04:57:01;19.70;99.90
40828;DHT22;26549;50.918;5.338;2022-07-24T04:59:27;19.70;99.90
40828;DHT22;26549;50.918;5.338;2022-07-24T05:01:52;19.80;99.90
40828;DHT22;26549;50.918;5.338;2022-07-24T05:04:18;19.80;99.90
40828;DHT22;26549;50.918;5.338;2022-07-24T05:06:44;19.90;99.90
40828;DHT22;26549;50.918;5.338;2022-07-24T05:09:11;19.90;99.90
40828;DHT22;26549;50.918;5.338;2022-07-24T05:11:39;19.90;99.90
40828;DHT22;26549;50.918;5.338;2022-07-24T05:14:05;19.80;99.90
40828;DHT22;26549;50.918;5.338;2022-07-24T05:16:31;19.90;99.90
40828;DHT22;26549;50.918;5.338;2022-07-24T05:18:57;19.90;99.90
40828;DHT22;26549;50.918;5.338;2022-07-24T05:21:23;19.90;99.90
40828;DHT22;26549;50.918;5.338;2022-07-24T05:23:49;19.80;99.90
40828;DHT22;26549;50.918;5.338;2022-07-24T05:26:15;20.00;99.90
40828;DHT22;26549;50.918;5.338;2022-07-24T05:28:41;20.10;99.90
40828;DHT22;26549;50.918;5.338;2022-07-24T05:31:07;20.10;99.90
40828;DHT22;26549;50.918;5.338;2022-07-24T05:33:34;20.20;99.90
40828;DHT22;26549;50.918;5.338;2022-07-24T05:36:00;20.40;99.90
40828;DHT22;26549;50.918;5.338;2022-07-24T05:38:25;20.40;99.90
40828;DHT22;26549;50.918;5.338;2022-07-24T05:40:51;20.50;99.90
40828;DHT22;26549;50.918;5.338;2022-07-24T05:43:17;20.60;99.90
40828;DHT22;26549;50.918;5.338;2022-07-24T05:45:43;21.00;99.90
40828;DHT22;26549;50.918;5.338;2022-07-24T05:48:09;21.30;99.90
40828;DHT22;26549;50.918;5.338;2022-07-24T05:50:35;21.50;99.90
40828;DHT22;26549;50.918;5.338;2022-07-24T05:53:00;21.70;99.90
40828;DHT22;26549;50.918;5.338;2022-07-24T05:55:26;21.80;99.90
40828;DHT22;26549;50.918;5.338;2022-07-24T05:57:54;21.80;99.90
40828;DHT22;26549;50.918;5.338;2022-07-24T06:00:19;21.70;99.90
40828;DHT22;26549;50.918;5.338;2022-07-24T06:02:45;21.60;99.90
40828;DHT22;26549;50.918;5.338;2022-07-24T06:05:15;21.50;99.90
40828;DHT22;26549;50.918;5.338;2022-07-24T06:07:44;21.60;99.90
40828;DHT22;26549;50.918;5.338;2022-07-24T06:10:10;21.50;99.90
40828;DHT22;26549;50.918;5.338;2022-07-24T06:12:36;21.50;99.90
40828;DHT22;26549;50.918;5.338;2022-07-24T06:15:02;21.40;99.90
40828;DHT22;26549;50.918;5.338;2022-07-24T06:17:28;21.50;99.90
40828;DHT22;26549;50.918;5.338;2022-07-24T06:19:54;21.50;99.90
40828;DHT22;26549;50.918;5.338;2022-07-24T06:22:19;21.70;99.90
40828;DHT22;26549;50.918;5.338;2022-07-24T06:24:45;21.90;99.90
40828;DHT22;26549;50.918;5.338;2022-07-24T06:27:11;21.90;99.90
40828;DHT22;26549;50.918;5.338;2022-07-24T06:29:37;22.10;99.90
40828;DHT22;26549;50.918;5.338;2022-07-24T06:32:02;22.40;99.90
40828;DHT22;26549;50.918;5.338;2022-07-24T06:34:28;22.60;99.90
40828;DHT22;26549;50.918;5.338;2022-07-24T06:36:54;22.70;99.90
40828;DHT22;26549;50.918;5.338;2022-07-24T06:39:20;22.80;99.90
40828;DHT22;26549;50.918;5.338;2022-07-24T06:41:45;22.70;99.90
40828;DHT22;26549;50.918;5.338;2022-07-24T06:44:11;22.60;99.90
40828;DHT22;26549;50.918;5.338;2022-07-24T06:46:37;22.80;99.90
40828;DHT22;26549;50.918;5.338;2022-07-24T06:49:02;22.90;99.90
40828;DHT22;26549;50.918;5.338;2022-07-24T06:51:28;22.90;99.90
40828;DHT22;26549;50.918;5.338;2022-07-24T06:53:54;23.00;99.90
40828;DHT22;26549;50.918;5.338;2022-07-24T06:56:19;23.10;99.90
40828;DHT22;26549;50.918;5.338;2022-07-24T06:58:45;23.10;99.90
40828;DHT22;26549;50.918;5.338;2022-07-24T07:01:11;23.10;99.90
40828;DHT22;26549;50.918;5.338;2022-07-24T07:03:37;23.10;99.90
40828;DHT22;26549;50.918;5.338;2022-07-24T07:06:03;23.10;99.90
40828;DHT22;26549;50.918;5.338;2022-07-24T07:08:29;23.20;99.90
40828;DHT22;26549;50.918;5.338;2022-07-24T07:10:54;23.20;99.90
40828;DHT22;26549;50.918;5.338;2022-07-24T07:13:20;23.40;99.60
40828;DHT22;26549;50.918;5.338;2022-07-24T07:15:46;23.60;99.70
40828;DHT22;26549;50.918;5.338;2022-07-24T07:18:12;23.50;99.80
40828;DHT22;26549;50.918;5.338;2022-07-24T07:20:38;23.60;99.70
40828;DHT22;26549;50.918;5.338;2022-07-24T07:23:04;23.70;99.80
40828;DHT22;26549;50.918;5.338;2022-07-24T07:25:30;23.60;99.70
40828;DHT22;26549;50.918;5.338;2022-07-24T07:27:55;23.70;99.90
40828;DHT22;26549;50.918;5.338;2022-07-24T07:30:21;23.80;99.50
40828;DHT22;26549;50.918;5.338;2022-07-24T07:32:47;23.90;99.50
40828;DHT22;26549;50.918;5.338;2022-07-24T07:35:12;23.90;99.80
40828;DHT22;26549;50.918;5.338;2022-07-24T07:37:38;23.90;99.20
40828;DHT22;26549;50.918;5.338;2022-07-24T07:40:04;23.90;99.30
40828;DHT22;26549;50.918;5.338;2022-07-24T07:42:30;24.20;98.90
40828;DHT22;26549;50.918;5.338;2022-07-24T07:44:56;24.20;99.10
40828;DHT22;26549;50.918;5.338;2022-07-24T07:47:21;24.30;99.40
40828;DHT22;26549;50.918;5.338;2022-07-24T07:49:47;24.40;98.90
40828;DHT22;26549;50.918;5.338;2022-07-24T07:52:13;24.40;98.90
40828;DHT22;26549;50.918;5.338;2022-07-24T07:54:38;24.50;99.00
40828;DHT22;26549;50.918;5.338;2022-07-24T07:57:04;24.50;98.60
40828;DHT22;26549;50.918;5.338;2022-07-24T07:59:30;24.60;98.80
40828;DHT22;26549;50.918;5.338;2022-07-24T08:01:55;24.70;98.20
40828;DHT22;26549;50.918;5.338;2022-07-24T08:04:21;24.60;98.20
40828;DHT22;26549;50.918;5.338;2022-07-24T08:06:47;24.80;98.20
40828;DHT22;26549;50.918;5.338;2022-07-24T08:09:12;24.80;97.60
40828;DHT22;26549;50.918;5.338;2022-07-24T08:11:38;24.80;98.00
40828;DHT22;26549;50.918;5.338;2022-07-24T08:14:04;25.00;97.80
40828;DHT22;26549;50.918;5.338;2022-07-24T08:16:29;25.10;97.50
40828;DHT22;26549;50.918;5.338;2022-07-24T08:18:55;25.10;97.50
40828;DHT22;26549;50.918;5.338;2022-07-24T08:21:21;25.20;97.30
40828;DHT22;26549;50.918;5.338;2022-07-24T08:23:47;25.40;96.70
40828;DHT22;26549;50.918;5.338;2022-07-24T08:26:14;25.50;95.90
40828;DHT22;26549;50.918;5.338;2022-07-24T08:28:40;25.60;95.80
40828;DHT22;26549;50.918;5.338;2022-07-24T08:31:06;25.50;95.60
40828;DHT22;26549;50.918;5.338;2022-07-24T08:33:31;25.40;96.20
40828;DHT22;26549;50.918;5.338;2022-07-24T08:35:57;25.60;96.00
40828;DHT22;26549;50.918;5.338;2022-07-24T08:38:23;25.80;95.60
40828;DHT22;26549;50.918;5.338;2022-07-24T08:40:50;25.90;96.00
40828;DHT22;26549;50.918;5.338;2022-07-24T08:43:16;26.00;95.00
40828;DHT22;26549;50.918;5.338;2022-07-24T08:45:42;26.10;94.80
40828;DHT22;26549;50.918;5.338;2022-07-24T08:48:10;26.10;94.50
40828;DHT22;26549;50.918;5.338;2022-07-24T08:50:39;26.10;94.30
40828;DHT22;26549;50.918;5.338;2022-07-24T08:53:06;26.20;94.40
40828;DHT22;26549;50.918;5.338;2022-07-24T08:55:32;26.40;94.20
40828;DHT22;26549;50.918;5.338;2022-07-24T08:58:00;26.60;93.60
40828;DHT22;26549;50.918;5.338;2022-07-24T09:00:27;26.50;93.40
40828;DHT22;26549;50.918;5.338;2022-07-24T09:02:53;26.70;93.00
40828;DHT22;26549;50.918;5.338;2022-07-24T09:05:19;26.80;92.00
40828;DHT22;26549;50.918;5.338;2022-07-24T09:07:45;26.60;92.50
40828;DHT22;26549;50.918;5.338;2022-07-24T09:10:13;26.70;92.40
40828;DHT22;26549;50.918;5.338;2022-07-24T09:12:41;26.80;92.80
40828;DHT22;26549;50.918;5.338;2022-07-24T09:15:21;26.70;92.50
40828;DHT22;26549;50.918;5.338;2022-07-24T09:17:56;26.60;92.20
40828;DHT22;26549;50.918;5.338;2022-07-24T09:20:27;26.50;92.40
40828;DHT22;26549;50.918;5.338;2022-07-24T09:22:54;26.40;92.20
40828;DHT22;26549;50.918;5.338;2022-07-24T09:25:26;26.30;92.50
40828;DHT22;26549;50.918;5.338;2022-07-24T09:27:58;26.20;92.90
40828;DHT22;26549;50.918;5.338;2022-07-24T09:30:30;26.20;92.60
40828;DHT22;26549;50.918;5.338;2022-07-24T09:33:15;26.30;92.80
40828;DHT22;26549;50.918;5.338;2022-07-24T09:35:52;26.40;92.20
40828;DHT22;26549;50.918;5.338;2022-07-24T09:38:20;26.30;92.40
40828;DHT22;26549;50.918;5.338;2022-07-24T09:40:51;26.60;92.50
40828;DHT22;26549;50.918;5.338;2022-07-24T09:43:24;26.70;92.10
40828;DHT22;26549;50.918;5.338;2022-07-24T09:46:06;26.80;91.60
40828;DHT22;26549;50.918;5.338;2022-07-24T09:48:50;26.80;91.70
40828;DHT22;26549;50.918;5.338;2022-07-24T09:51:17;27.00;91.60
40828;DHT22;26549;50.918;5.338;2022-07-24T09:53:45;27.20;91.90
40828;DHT22;26549;50.918;5.338;2022-07-24T10:01:13;27.30;90.90
40828;DHT22;26549;50.918;5.338;2022-07-24T10:03:43;27.40;90.20
40828;DHT22;26549;50.918;5.338;2022-07-24T10:06:12;27.50;90.40
40828;DHT22;26549;50.918;5.338;2022-07-24T10:08:41;27.60;90.30
40828;DHT22;26549;50.918;5.338;2022-07-24T10:11:08;27.50;90.00
40828;DHT22;26549;50.918;5.338;2022-07-24T10:13:34;27.30;90.30
40828;DHT22;26549;50.918;5.338;2022-07-24T10:21:21;27.50;89.60
40828;DHT22;26549;50.918;5.338;2022-07-24T10:26:43;27.70;90.20
40828;DHT22;26549;50.918;5.338;2022-07-24T10:29:17;27.90;89.10
40828;DHT22;26549;50.918;5.338;2022-07-24T10:31:49;28.00;88.30
40828;DHT22;26549;50.918;5.338;2022-07-24T10:34:30;28.10;87.30
40828;DHT22;26549;50.918;5.338;2022-07-24T10:45:32;28.40;86.50
40828;DHT22;26549;50.918;5.338;2022-07-24T10:51:07;28.60;87.50
40828;DHT22;26549;50.918;5.338;2022-07-24T10:53:46;28.60;86.40
40828;DHT22;26549;50.918;5.338;2022-07-24T10:58:55;28.70;86.10
40828;DHT22;26549;50.918;5.338;2022-07-24T11:01:34;28.70;86.30
40828;DHT22;26549;50.918;5.338;2022-07-24T11:07:09;28.90;84.80
40828;DHT22;26549;50.918;5.338;2022-07-24T11:10:04;28.80;84.00
40828;DHT22;26549;50.918;5.338;2022-07-24T11:12:41;28.70;86.10
40828;DHT22;26549;50.918;5.338;2022-07-24T11:15:08;28.80;85.40
40828;DHT22;26549;50.918;5.338;2022-07-24T11:17:52;28.80;85.90
40828;DHT22;26549;50.918;5.338;2022-07-24T11:20:20;28.70;85.70
40828;DHT22;26549;50.918;5.338;2022-07-24T11:22:48;28.80;85.70
40828;DHT22;26549;50.918;5.338;2022-07-24T11:25:25;29.00;85.40
40828;DHT22;26549;50.918;5.338;2022-07-24T11:30:32;29.20;85.20
40828;DHT22;26549;50.918;5.338;2022-07-24T11:32:59;29.30;85.40
40828;DHT22;26549;50.918;5.338;2022-07-24T11:35:35;29.30;85.00
40828;DHT22;26549;50.918;5.338;2022-07-24T11:38:04;29.30;84.80
40828;DHT22;26549;50.918;5.338;2022-07-24T11:40:30;29.20;85.50
40828;DHT22;26549;50.918;5.338;2022-07-24T11:43:01;29.50;85.40
40828;DHT22;26549;50.918;5.338;2022-07-24T11:45:27;29.40;85.10
40828;DHT22;26549;50.918;5.338;2022-07-24T11:47:53;29.20;85.00
40828;DHT22;26549;50.918;5.338;2022-07-24T11:50:26;29.20;85.10
40828;DHT22;26549;50.918;5.338;2022-07-24T11:52:52;29.20;84.80
40828;DHT22;26549;50.918;5.338;2022-07-24T11:55:21;29.40;85.70
40828;DHT22;26549;50.918;5.338;2022-07-24T11:57:52;29.40;83.00
40828;DHT22;26549;50.918;5.338;2022-07-24T12:00:21;29.20;83.20
40828;DHT22;26549;50.918;5.338;2022-07-24T12:02:55;29.20;85.20
40828;DHT22;26549;50.918;5.338;2022-07-24T12:05:30;29.30;85.00
40828;DHT22;26549;50.918;5.338;2022-07-24T12:07:57;29.40;85.90
40828;DHT22;26549;50.918;5.338;2022-07-24T12:10:25;29.70;83.60
40828;DHT22;26549;50.918;5.338;2022-07-24T12:12:52;29.60;83.20
40828;DHT22;26549;50.918;5.338;2022-07-24T12:15:20;29.60;85.40
40828;DHT22;26549;50.918;5.338;2022-07-24T12:18:05;29.60;84.70
40828;DHT22;26549;50.918;5.338;2022-07-24T12:20:33;29.50;83.30
40828;DHT22;26549;50.918;5.338;2022-07-24T12:23:02;29.40;84.10
40828;DHT22;26549;50.918;5.338;2022-07-24T12:25:29;29.50;84.70
40828;DHT22;26549;50.918;5.338;2022-07-24T12:30:38;29.70;84.50
40828;DHT22;26549;50.918;5.338;2022-07-24T12:33:09;29.80;83.30
40828;DHT22;26549;50.918;5.338;2022-07-24T12:36:02;29.90;86.00
40828;DHT22;26549;50.918;5.338;2022-07-24T12:38:38;30.10;83.40
40828;DHT22;26549;50.918;5.338;2022-07-24T12:43:49;30.10;83.50
40828;DHT22;26549;50.918;5.338;2022-07-24T12:46:15;30.10;82.90
40828;DHT22;26549;50.918;5.338;2022-07-24T12:48:59;30.00;83.10
40828;DHT22;26549;50.918;5.338;2022-07-24T12:51:25;30.10;83.30
40828;DHT22;26549;50.918;5.338;2022-07-24T12:53:55;30.10;82.10
40828;DHT22;26549;50.918;5.338;2022-07-24T12:56:21;30.20;82.50
40828;DHT22;26549;50.918;5.338;2022-07-24T12:58:56;30.30;83.20
40828;DHT22;26549;50.918;5.338;2022-07-24T13:01:23;30.30;82.30
40828;DHT22;26549;50.918;5.338;2022-07-24T13:03:52;30.40;83.60
40828;DHT22;26549;50.918;5.338;2022-07-24T13:06:18;30.50;82.60
40828;DHT22;26549;50.918;5.338;2022-07-24T13:08:44;30.60;82.90
40828;DHT22;26549;50.918;5.338;2022-07-24T13:11:09;30.70;81.70
40828;DHT22;26549;50.918;5.338;2022-07-24T13:13:35;30.50;81.80
40828;DHT22;26549;50.918;5.338;2022-07-24T13:16:00;30.50;81.90
40828;DHT22;26549;50.918;5.338;2022-07-24T13:18:28;30.50;81.70
40828;DHT22;26549;50.918;5.338;2022-07-24T13:20:54;30.50;82.60
40828;DHT22;26549;50.918;5.338;2022-07-24T13:23:19;30.50;81.90
40828;DHT22;26549;50.918;5.338;2022-07-24T13:25:45;30.60;82.90
40828;DHT22;26549;50.918;5.338;2022-07-24T13:28:13;30.70;82.00
40828;DHT22;26549;50.918;5.338;2022-07-24T13:30:38;30.60;82.40
40828;DHT22;26549;50.918;5.338;2022-07-24T13:33:04;30.60;82.00
40828;DHT22;26549;50.918;5.338;2022-07-24T13:35:30;30.60;81.70
40828;DHT22;26549;50.918;5.338;2022-07-24T13:37:56;30.60;82.20
40828;DHT22;26549;50.918;5.338;2022-07-24T13:40:21;30.50;81.60
40828;DHT22;26549;50.918;5.338;2022-07-24T13:42:47;30.50;82.80
40828;DHT22;26549;50.918;5.338;2022-07-24T13:45:12;30.40;82.70
40828;DHT22;26549;50.918;5.338;2022-07-24T13:47:38;30.40;83.00
40828;DHT22;26549;50.918;5.338;2022-07-24T13:50:04;30.40;83.20
40828;DHT22;26549;50.918;5.338;2022-07-24T13:52:30;30.50;85.10
40828;DHT22;26549;50.918;5.338;2022-07-24T13:54:56;30.60;82.90
40828;DHT22;26549;50.918;5.338;2022-07-24T13:57:21;30.80;83.90
40828;DHT22;26549;50.918;5.338;2022-07-24T13:59:47;30.90;82.90
40828;DHT22;26549;50.918;5.338;2022-07-24T14:02:13;30.80;80.80
40828;DHT22;26549;50.918;5.338;2022-07-24T14:04:40;30.80;81.80
40828;DHT22;26549;50.918;5.338;2022-07-24T14:07:06;30.70;81.60
40828;DHT22;26549;50.918;5.338;2022-07-24T14:09:32;30.80;81.50
40828;DHT22;26549;50.918;5.338;2022-07-24T14:11:58;30.80;81.40
40828;DHT22;26549;50.918;5.338;2022-07-24T14:14:24;30.70;80.90
40828;DHT22;26549;50.918;5.338;2022-07-24T14:16:50;30.70;81.60
40828;DHT22;26549;50.918;5.338;2022-07-24T14:19:16;30.70;82.10
40828;DHT22;26549;50.918;5.338;2022-07-24T14:21:41;30.70;81.00
40828;DHT22;26549;50.918;5.338;2022-07-24T14:24:11;30.70;82.00
40828;DHT22;26549;50.918;5.338;2022-07-24T14:26:37;30.70;81.00
40828;DHT22;26549;50.918;5.338;2022-07-24T14:29:03;30.80;81.90
40828;DHT22;26549;50.918;5.338;2022-07-24T14:31:29;30.80;81.70
40828;DHT22;26549;50.918;5.338;2022-07-24T14:33:54;30.90;81.60
40828;DHT22;26549;50.918;5.338;2022-07-24T14:36:20;30.90;79.90
40828;DHT22;26549;50.918;5.338;2022-07-24T14:38:45;31.00;81.90
40828;DHT22;26549;50.918;5.338;2022-07-24T14:41:11;31.10;80.10
40828;DHT22;26549;50.918;5.338;2022-07-24T14:43:37;31.10;80.00
40828;DHT22;26549;50.918;5.338;2022-07-24T14:46:03;31.10;79.30
40828;DHT22;26549;50.918;5.338;2022-07-24T14:48:28;31.20;79.60
40828;DHT22;26549;50.918;5.338;2022-07-24T14:50:54;31.10;79.80
40828;DHT22;26549;50.918;5.338;2022-07-24T14:53:20;31.20;79.50
40828;DHT22;26549;50.918;5.338;2022-07-24T14:55:45;31.20;79.70
40828;DHT22;26549;50.918;5.338;2022-07-24T14:58:11;31.30;80.00
40828;DHT22;26549;50.918;5.338;2022-07-24T15:00:37;31.50;78.50
40828;DHT22;26549;50.918;5.338;2022-07-24T15:03:02;31.50;77.50
40828;DHT22;26549;50.918;5.338;2022-07-24T15:05:28;31.40;77.60
40828;DHT22;26549;50.918;5.338;2022-07-24T15:07:54;31.50;79.00
40828;DHT22;26549;50.918;5.338;2022-07-24T15:10:19;31.50;77.90
40828;DHT22;26549;50.918;5.338;2022-07-24T15:12:45;31.40;77.90
40828;DHT22;26549;50.918;5.338;2022-07-24T15:15:11;31.40;77.00
40828;DHT22;26549;50.918;5.338;2022-07-24T15:17:37;31.50;77.70
40828;DHT22;26549;50.918;5.338;2022-07-24T15:20:03;31.60;77.50
40828;DHT22;26549;50.918;5.338;2022-07-24T15:22:29;31.70;78.00
40828;DHT22;26549;50.918;5.338;2022-07-24T15:24:54;31.80;77.20
40828;DHT22;26549;50.918;5.338;2022-07-24T15:27:20;31.90;76.20
40828;DHT22;26549;50.918;5.338;2022-07-24T15:29:45;31.90;76.50
40828;DHT22;26549;50.918;5.338;2022-07-24T15:32:11;32.00;75.70
40828;DHT22;26549;50.918;5.338;2022-07-24T15:34:37;32.00;75.70
40828;DHT22;26549;50.918;5.338;2022-07-24T15:37:03;32.00;75.30
40828;DHT22;26549;50.918;5.338;2022-07-24T15:39:28;32.00;75.10
40828;DHT22;26549;50.918;5.338;2022-07-24T15:41:54;32.10;75.50
40828;DHT22;26549;50.918;5.338;2022-07-24T15:44:21;32.00;76.30
40828;DHT22;26549;50.918;5.338;2022-07-24T15:46:47;32.10;76.60
40828;DHT22;26549;50.918;5.338;2022-07-24T15:49:13;32.20;76.90
40828;DHT22;26549;50.918;5.338;2022-07-24T15:51:39;32.30;75.00
40828;DHT22;26549;50.918;5.338;2022-07-24T15:54:05;32.30;75.00
40828;DHT22;26549;50.918;5.338;2022-07-24T15:56:31;32.40;74.50
40828;DHT22;26549;50.918;5.338;2022-07-24T15:58:57;32.40;75.20
40828;DHT22;26549;50.918;5.338;2022-07-24T16:01:23;32.40;74.30
40828;DHT22;26549;50.918;5.338;2022-07-24T16:03:48;32.40;74.60
40828;DHT22;26549;50.918;5.338;2022-07-24T16:06:14;32.40;75.40
40828;DHT22;26549;50.918;5.338;2022-07-24T16:08:40;32.50;74.20